Omaha, Nebraska
Current Conditions -  °F | °C
As of 11:52 PM on Tuesday 21 Oct 2014 (Local Time) from KOMA Reporting Station
Scattered Clouds Scattered Clouds  
Wind Chill: 58°   Ceiling: Unl
Heat Index: 58°   Visibility: 10mi
Dew Point: 44°   Wind: 16mph
Humidity: 60%   Direction: 150°SSE
Pressure: 30.08"   Gusts: NA
Location:  41.26°N, 95.94°W
Report Text: KOMA 220452Z 15014KT 10SM SCT050 14/07 A3008 RMK AO2 SLP183 T01440067
Loading
Personal Weather Stations






























Interactive Weather Map
Tropical Storm Tracking
New forecast layout! Learn more

10-Day Weather Forecast

Advertisements
Track Severe Weather on mobile